Acme, Canada
Current Conditions -  °F | °C
As of 2:00 AM on Tuesday 21 Oct 2014 (Local Time) from CYYC Reporting Station
Few Clouds Few Clouds  
Wind Chill: 50°   Ceiling: Unl
Heat Index: 50°   Visibility: 15mi
Dew Point: 32°   Wind: 6mph
Humidity: 50%   Direction: 220°SW
Pressure: 29.59"   Gusts: NA
Location:  51.5°N, 113.5°W
Report Text: CYYC 210800Z 22005KT 170V240 15SM FEW240 10/00 A2959 RMK CI1 SLP015 DENSITY ALT 4200FT
Loading
Personal Weather Stations






























Interactive Weather Map
Tropical Storm Tracking
New forecast layout! Learn more

10-Day Weather Forecast

Advertisements
Track Severe Weather on mobile